Data for 05/02/2018

Time Sea-Level Adjusted Pressure Absolute Pressure Temperature Relative Humidity Dew Point   
(mb) (inHg) (mb) (inHg) (C) (F) (%) (C) (F)
00:05 1017 30.03 846 24.98 4.8 40.7 79 1.5 34.7
00:10 1017 30.03 846 24.98 4.8 40.7 79 1.5 34.6
00:15 1017 30.03 846 24.98 5 41 78 1.5 34.7
00:20 1017 30.03 846 24.98 5.1 41.2 77 1.5 34.7
00:25 1017 30.03 846 24.98 5.1 41.2 77 1.4 34.5
00:30 1017 30.03 846 24.98 5.1 41.2 77 1.3 34.4
00:35 1017 30.03 846 24.98 5.1 41.1 76 1.3 34.3
00:40 1017 30.03 846 24.98 5.1 41.1 76 1.2 34.1
00:45 1017 30.03 846 24.98 5.1 41.1 76 1.2 34.2
00:50 1017 30.03 846 24.98 5.1 41.1 76 1.3 34.3
00:55 1017 30.03 846 24.98 5 41 77 1.3 34.3
01:00 1017 30.03 846 24.98 5 41 77 1.2 34.2
01:05 1017 30.03 846 24.98 4.9 40.8 77 1.2 34.1
01:10 1017 30.03 846 24.98 4.9 40.7 75 0.9 33.6
01:15 1017 30.03 846 24.98 4.8 40.7 75 0.8 33.5
01:20 1017 30.03 846 24.98 4.8 40.7 75 0.8 33.4
01:25 1017 30.03 846 24.98 4.8 40.6 75 0.8 33.4
01:30 1017 30.03 846 24.98 4.8 40.6 74 0.6 33.1
01:35 1017 30.03 846 24.98 4.8 40.7 75 0.8 33.4
01:40 1017 30.03 846 24.98 4.8 40.6 75 0.8 33.5
01:45 1017 30.03 846 24.98 4.8 40.6 76 0.9 33.6
01:50 1017 30.03 846 24.98 4.7 40.4 76 0.8 33.5
01:55 1017 30.03 846 24.98 4.6 40.3 76 0.8 33.4
02:00 1017 30.03 846 24.98 4.6 40.3 76 0.7 33.3
02:05 1017 30.03 846 24.98 4.6 40.3 76 0.7 33.3
02:10 1017 30.03 846 24.98 4.6 40.2 76 0.6 33.1
02:15 1017 30.03 846 24.98 4.6 40.2 75 0.5 33
02:20 1017 30.03 846 24.98 4.6 40.3 75 0.6 33.1
02:25 1017 30.03 846 24.98 4.6 40.4 75 0.7 33.2
02:30 1017 30.03 846 24.98 4.7 40.5 75 0.7 33.2
02:35 1017 30.03 846 24.98 4.7 40.5 75 0.7 33.3
02:40 1017 30.03 846 24.98 4.7 40.5 76 0.8 33.4
02:45 1017 30.03 846 24.98 4.8 40.6 76 0.8 33.5
02:50 1017 30.03 846 24.98 4.8 40.6 76 0.9 33.6
02:55 1017 30.03 846 24.98 4.8 40.7 75 0.9 33.5
03:00 1017 30.03 846 24.98 4.8 40.7 75 0.9 33.5
03:05 1017 30.03 846 24.98 4.9 40.8 76 1 33.7
03:10 1017 30.03 846 24.98 4.9 40.7 75 0.9 33.5
03:15 1017 30.03 846 24.98 4.9 40.8 76 1.1 33.9
03:20 1017 30.03 846 24.98 4.8 40.6 77 1.1 34.1
03:25 1017 30.03 846 24.98 4.6 40.2 79 1.2 34.2
03:30 1017 30.03 846 24.98 4.3 39.8 81 1.3 34.3
03:35 1017 30.03 846 24.98 4.2 39.5 81 1.2 34.1
03:40 1017 30.03 846 24.98 4.1 39.4 81 1.1 34
03:45 1017 30.03 846 24.98 4 39.3 81 1.1 34.1
03:50 1017 30.03 846 24.98 4 39.2 81 1.1 34
03:55 1017 30.03 846 24.98 4 39.2 82 1.1 34
04:00 1017 30.03 846 24.98 4 39.2 82 1.1 34.1
04:05 1017 30.03 846 24.98 4 39.2 82 1.2 34.2
04:10 1017 30.03 846 24.98 4 39.1 82 1.2 34.2
04:15 1017 30.03 846 24.98 3.9 39 83 1.2 34.2
04:20 1017 30.03 846 24.98 3.9 39 83 1.2 34.2
04:25 1017 30.03 846 24.98 3.9 39.1 83 1.2 34.2
04:30 1017 30.03 846 24.98 3.9 39.1 83 1.2 34.2
04:35 1017 30.03 846 24.98 3.9 39 83 1.2 34.2
04:40 1017 30.03 846 24.98 3.9 39 83 1.2 34.2
04:45 1017 30.03 846 24.98 3.8 38.9 83 1.2 34.1
04:50 1017 30.03 846 24.98 3.8 38.9 83 1.2 34.2
04:55 1017 30.03 846 24.98 3.8 38.8 83 1.2 34.2
05:00 1017 30.03 846 24.98 3.8 38.8 83 1.2 34.1
05:05 1017 30.03 846 24.98 3.7 38.7 83 1.1 34
05:10 1017 30.03 846 24.98 3.7 38.7 83 1.2 34.1
05:15 1017 30.03 846 24.98 3.6 38.5 84 1.2 34.1
05:20 1017 30.03 846 24.98 3.6 38.4 84 1.2 34.1
05:25 1017 30.03 846 24.98 3.6 38.4 84 1.1 34
05:30 1017 30.03 846 24.98 3.5 38.3 84 1.1 34
05:35 1017 30.03 846 24.98 3.5 38.2 85 1.1 34
05:40 1017 30.03 846 24.98 3.4 38.1 85 1.1 34
05:45 1017 30.03 846 24.98 3.3 38 85 1 33.8
05:50 1017 30.03 846 24.98 3.3 37.9 85 1 33.8
05:55 1017 30.03 846 24.98 3.2 37.7 85 1 33.7
06:00 1017 30.03 846 24.98 3.1 37.7 85 0.9 33.7
06:05 1017 30.03 846 24.98 3.1 37.5 86 0.9 33.6
06:10 1017 30.03 846 24.98 3 37.3 86 0.8 33.5
06:15 1017 30.03 846 24.98 2.9 37.2 86 0.8 33.4
06:20 1017 30.03 846 24.98 2.9 37.2 86 0.7 33.3
06:25 1017 30.03 846 24.98 2.9 37.2 86 0.7 33.3
06:30 1017 30.03 846 24.98 2.8 37.1 86 0.8 33.4
06:35 1017 30.03 846 24.98 2.8 37.1 86 0.7 33.2
06:40 1017 30.03 846 24.98 2.7 36.9 86 0.6 33.1
06:45 1017 30.03 846 24.98 2.7 36.9 86 0.6 33.1
06:50 1017 30.03 847 25.01 2.8 37 86 0.6 33.1
06:55 1017 30.03 847 25.01 3.1 37.5 84 0.7 33.2
07:00 1017 30.03 847 25.01 3.3 37.9 83 0.7 33.2
07:05 1017 30.03 847 25.01 3.4 38.2 83 0.8 33.4
07:10 1017 30.03 847 25.01 3.4 38.1 83 0.8 33.4
07:15 1018 30.06 847 25.01 3.6 38.5 82 0.8 33.4
07:20 1018 30.06 847 25.01 3.7 38.6 80 0.5 32.9
07:25 1018 30.06 847 25.01 3.5 38.2 82 0.6 33.1
07:30 1018 30.06 847 25.01 3.7 38.6 81 0.7 33.2
07:35 1018 30.06 847 25.01 4.2 39.5 79 0.8 33.4
07:40 1018 30.06 847 25.01 5.3 41.5 73 0.9 33.5
07:45 1018 30.06 847 25.01 5.8 42.5 71 1 33.9
07:50 1018 30.06 847 25.01 5.5 41.9 72 0.9 33.6
07:55 1018 30.06 847 25.01 5.3 41.5 74 1 33.8
08:00 1018 30.06 847 25.01 5.4 41.7 72 0.7 33.2
08:05 1018 30.06 847 25.01 6 42.8 68 0.7 33.2
08:10 1018 30.06 847 25.01 6.6 43.9 66 0.7 33.2
08:15 1018 30.06 847 25.01 6.8 44.3 64 0.6 33.1
08:20 1018 30.06 847 25.01 6.9 44.4 65 0.9 33.6
08:25 1018 30.06 847 25.01 7 44.6 63 0.5 32.9
08:30 1018 30.06 847 25.01 7.4 45.3 61 0.4 32.7
08:35 1018 30.06 847 25.01 7.6 45.6 59 0.2 32.3
08:40 1018 30.06 847 25.01 7.1 44.7 61 -0 31.9
08:45 1018 30.06 847 25.01 8.1 46.5 58 0.4 32.8
08:50 1018 30.06 847 25.01 8.5 47.2 58 0.7 33.2
08:55 1018 30.06 847 25.01 8.7 47.7 56 0.6 33.1
09:00 1018 30.06 847 25.01 8.3 47 58 0.6 33.1
09:05 1018 30.06 847 25.01 8.4 47.1 59 0.9 33.5
09:10 1018 30.06 847 25.01 8.1 46.5 60 0.7 33.3
09:15 1018 30.06 847 25.01 7.7 45.9 60 0.5 32.9
09:20 1018 30.06 847 25.01 7.8 46.1 58 0.2 32.4
09:25 1018 30.06 847 25.01 8.3 47 56 0.1 32.2
09:30 1018 30.06 847 25.01 8.3 46.9 58 0.6 33.1
09:35 1018 30.06 847 25.01 8.1 46.6 58 0.3 32.5
09:40 1018 30.06 847 25.01 8.7 47.6 55 0.1 32.2
09:45 1018 30.06 847 25.01 8.2 46.7 58 0.3 32.5
09:50 1018 30.06 847 25.01 8.7 47.7 54 -0.1 31.8
09:55 1018 30.06 847 25.01 9.4 48.9 52 0.1 32.2
10:00 1018 30.06 847 25.01 9 48.1 54 0.1 32.1
10:05 1018 30.06 847 25.01 9.4 48.9 51 -0.1 31.8
10:10 1018 30.06 847 25.01 9.7 49.4 51 0 32
10:15 1018 30.06 847 25.01 9.3 48.8 52 0 32
10:20 1018 30.06 847 25.01 8.7 47.6 56 0.5 32.8
10:25 1018 30.06 847 25.01 9.1 48.3 52 -0.1 31.7
10:30 1018 30.06 847 25.01 10 50 51 0.4 32.8
10:35 1018 30.06 847 25.01 9.9 49.8 50 0.1 32.1
10:40 1018 30.06 847 25.01 9.9 49.8 50 -0 32
10:45 1018 30.06 847 25.01 10.7 51.2 45 -0.6 30.9
10:50 1018 30.06 847 25.01 10.2 50.3 48 -0.4 31.3
10:55 1018 30.06 847 25.01 10.5 50.9 47 -0.1 31.8
11:00 1018 30.06 847 25.01 9.9 49.9 52 0.6 33.1
11:05 1018 30.06 847 25.01 9.9 49.8 49 -0.2 31.7
11:10 1018 30.06 847 25.01 10.4 50.7 47 -0.4 31.2
11:15 1018 30.06 847 25.01 10.7 51.2 45 -0.8 30.5
11:20 1018 30.06 847 25.01 10.6 51.2 46 -0.6 31
11:25 1018 30.06 847 25.01 10.9 51.6 45 -0.6 30.9
11:30 1018 30.06 847 25.01 11.2 52.2 42 -1 30.2
11:35 1018 30.06 847 25.01 11.4 52.5 45 0 32
11:40 1018 30.06 847 25.01 10.5 51 48 0 32.1
11:45 1018 30.06 847 25.01 10.3 50.5 45 -1 30.2
11:50 1018 30.06 847 25.01 11 51.7 41 -1.6 29.1
11:55 1018 30.06 847 25.01 11.9 53.3 40 -1.2 29.8
12:00 1018 30.06 847 25.01 12.4 54.2 38 -1.6 29.1
12:05 1018 30.06 847 25.01 11.9 53.4 38 -1.9 28.6
12:10 1018 30.06 847 25.01 11.8 53.3 37 -2.1 28.1
12:15 1018 30.06 847 25.01 11.5 52.6 37 -2.5 27.4
12:20 1018 30.06 847 25.01 12.3 54.2 36 -2.1 28.2
12:25 1018 30.06 847 25.01 13.1 55.5 33 -2.7 27.2
12:30 1018 30.06 847 25.01 13.2 55.7 31 -3.4 25.8
12:35 1018 30.06 847 25.01 12.7 54.8 33 -3.3 26
12:40 1017 30.03 847 25.01 13.4 56 30 -3.6 25.5
12:45 1017 30.03 847 25.01 12.9 55.1 35 -2 28.3
12:50 1017 30.03 847 25.01 11.8 53.2 39 -1.7 29
12:55 1017 30.03 846 24.98 11.8 53.2 38 -2.1 28.1
13:00 1017 30.03 846 24.98 12.5 54.6 33 -3.3 26
13:05 1017 30.03 846 24.98 12.6 54.6 35 -2.3 27.9
13:10 1017 30.03 846 24.98 12.6 54.8 36 -1.9 28.5
13:15 1017 30.03 846 24.98 12.3 54.2 34 -3.2 26.2
13:20 1017 30.03 846 24.98 11.8 53.2 33 -3.9 25
13:25 1017 30.03 846 24.98 12.4 54.4 31 -4.2 24.5
13:30 1017 30.03 846 24.98 13.2 55.8 29 -4.2 24.4
13:35 1017 30.03 846 24.98 13.6 56.5 30 -3.6 25.6
13:40 1017 30.03 846 24.98 13.6 56.4 32 -2.9 26.7
13:45 1017 30.03 846 24.98 13.3 55.9 33 -2.7 27.1
13:50 1017 30.03 846 24.98 14 57.2 31 -2.8 27
13:55 1017 30.03 846 24.98 14.5 58 30 -2.9 26.8
14:00 1017 30.03 846 24.98 13.1 55.6 30 -4.1 24.7
14:05 1017 30.03 846 24.98 13.7 56.7 29 -3.7 25.3
14:10 1017 30.03 846 24.98 13.7 56.7 30 -3.7 25.3
14:15 1017 30.03 846 24.98 12.9 55.3 31 -3.6 25.6
14:20 1016 30 846 24.98 13.1 55.6 31 -3.5 25.6
14:25 1016 30 846 24.98 13.8 56.8 30 -3.5 25.8
14:30 1017 30.03 846 24.98 13.5 56.3 31 -3.1 26.5
14:35 1017 30.03 846 24.98 13.3 55.9 32 -3.2 26.2
14:40 1016 30 846 24.98 12.6 54.8 32 -3.7 25.3
14:45 1016 30 846 24.98 13.7 56.6 31 -3.3 26.1
14:50 1016 30 846 24.98 14.1 57.4 31 -2.8 26.9
14:55 1016 30 846 24.98 14.7 58.4 30 -2.7 27.1
15:00 1016 30 846 24.98 14.4 57.9 31 -2.5 27.5
15:05 1016 30 846 24.98 14.7 58.5 30 -2.7 27.2
15:10 1016 30 846 24.98 14.5 58 30 -2.7 27.1
15:15 1016 30 846 24.98 14 57.2 31 -3 26.6
15:20 1016 30 845 24.95 14.3 57.8 30 -3 26.7
15:25 1016 30 845 24.95 14 57.2 31 -3 26.7
15:30 1016 30 845 24.95 14.1 57.3 30 -3.2 26.3
15:35 1016 30 845 24.95 14 57.1 30 -3.2 26.3
15:40 1016 30 845 24.95 14.5 58.2 29 -3.4 25.8
15:45 1016 30 845 24.95 14.3 57.7 30 -3 26.5
15:50 1016 30 845 24.95 13.5 56.3 31 -3.4 25.8
15:55 1016 30 845 24.95 13.1 55.5 32 -3 26.6
16:00 1016 30 845 24.95 13.6 56.4 31 -3.1 26.5
16:05 1016 30 845 24.95 14.1 57.3 30 -3 26.6
16:10 1016 30 845 24.95 14.3 57.7 30 -3 26.7
16:15 1016 30 845 24.95 14.6 58.2 29 -3.1 26.5
16:20 1016 30 845 24.95 14.2 57.5 31 -2.7 27.2
16:25 1016 30 845 24.95 14.9 58.8 28 -3.3 26.1
16:30 1016 30 845 24.95 15.1 59.1 30 -2.2 28
16:35 1016 30 845 24.95 13.7 56.6 31 -2.9 26.8
16:40 1016 30 845 24.95 13.9 57 31 -3 26.6
16:45 1016 30 845 24.95 14 57.2 30 -3.4 26
16:50 1016 30 845 24.95 14.3 57.8 29 -3.5 25.7
16:55 1016 30 845 24.95 14 57.3 29 -3.6 25.5
17:00 1015 29.97 845 24.95 14.8 58.7 28 -3.3 26.1
17:05 1015 29.97 845 24.95 15.3 59.5 26 -4.3 24.3
17:10 1016 30 845 24.95 15.3 59.6 27 -3.3 26
17:15 1016 30 845 24.95 14.9 58.8 29 -2.9 26.7
17:20 1016 30 845 24.95 14.9 58.7 28 -3.5 25.7
17:25 1016 30 845 24.95 14.9 58.8 25 -4.7 23.5
17:30 1016 30 845 24.95 14.8 58.6 26 -4.2 24.4
17:35 1015 29.97 845 24.95 14.5 58.1 29 -3.4 25.8
17:40 1016 30 845 24.95 14.6 58.2 28 -3.8 25.2
17:45 1016 30 845 24.95 14.6 58.4 26 -4.5 23.8
17:50 1015 29.97 845 24.95 14.5 58.1 27 -4.2 24.4
17:55 1016 30 845 24.95 14.9 58.9 27 -3.8 25.1
18:00 1016 30 845 24.95 14.6 58.2 26 -4.4 24.1
18:05 1016 30 845 24.95 14 57.3 27 -4.6 23.7
18:10 1015 29.97 845 24.95 14.4 57.8 26 -4.8 23.3
18:15 1015 29.97 845 24.95 14.6 58.2 26 -4.4 24
18:20 1015 29.97 845 24.95 14.8 58.6 26 -4.4 24.1
18:25 1015 29.97 845 24.95 14.7 58.4 26 -4.8 23.4
18:30 1015 29.97 845 24.95 14.6 58.2 26 -4.6 23.7
18:35 1015 29.97 845 24.95 14.2 57.6 27 -4.3 24.2
18:40 1015 29.97 845 24.95 13.9 56.9 28 -4.4 24
18:45 1015 29.97 845 24.95 13.6 56.4 28 -4.4 24.1
18:50 1015 29.97 845 24.95 13.1 55.6 29 -4.6 23.8
18:55 1015 29.97 845 24.95 13.1 55.5 29 -4.6 23.7
19:00 1015 29.97 845 24.95 13.2 55.8 29 -4.2 24.4
19:05 1015 29.97 845 24.95 13.3 55.9 30 -3.9 25
19:10 1015 29.97 845 24.95 13.3 56 30 -3.8 25.2
19:15 1015 29.97 845 24.95 13.2 55.8 28 -4.6 23.7
19:20 1015 29.97 845 24.95 13.1 55.5 29 -4.6 23.7
19:25 1015 29.97 845 24.95 13.1 55.5 28 -4.8 23.4
19:30 1015 29.97 845 24.95 13.1 55.5 29 -4.6 23.7
19:35 1015 29.97 845 24.95 13.1 55.5 29 -4.6 23.8
19:40 1015 29.97 845 24.95 13 55.4 29 -4.5 23.8
19:45 1015 29.97 845 24.95 12.9 55.2 29 -4.5 24
19:50 1016 30 845 24.95 12.8 55.1 30 -4.1 24.6
19:55 1016 30 845 24.95 12.7 54.8 31 -4 24.7
20:00 1016 30 845 24.95 12.7 54.9 31 -4.1 24.7
20:05 1016 30 845 24.95 12.6 54.7 32 -3.6 25.5
20:10 1016 30 845 24.95 12.6 54.6 31 -3.9 25.1
20:15 1016 30 845 24.95 12.4 54.4 32 -3.6 25.5
20:20 1016 30 845 24.95 12.3 54.1 33 -3.4 25.9
20:25 1016 30 845 24.95 12.2 54 34 -3.2 26.2
20:30 1016 30 845 24.95 12.1 53.8 35 -2.9 26.7
20:35 1016 30 845 24.95 12 53.6 35 -2.8 26.9
20:40 1016 30 845 24.95 11.9 53.4 34 -3.2 26.2
20:45 1016 30 845 24.95 11.8 53.2 35 -3 26.5
20:50 1016 30 845 24.95 11.6 52.9 36 -2.9 26.8
20:55 1016 30 845 24.95 11.5 52.7 37 -2.6 27.3
21:00 1016 30 845 24.95 11.3 52.3 39 -1.9 28.5
21:05 1016 30 845 24.95 11.1 51.9 40 -1.9 28.6
21:10 1016 30 845 24.95 10.8 51.5 41 -1.9 28.5
21:15 1016 30 845 24.95 10.2 50.4 50 0.4 32.7
21:20 1016 30 845 24.95 9 48.1 53 0 32.1
21:25 1016 30 845 24.95 8.5 47.3 56 0.2 32.4
21:30 1016 30 845 24.95 8.3 46.9 56 -0.1 31.9
21:35 1016 30 846 24.98 8.5 47.3 50 -1.1 29.9
21:40 1016 30 846 24.98 8.7 47.6 49 -1.4 29.5
21:45 1017 30.03 846 24.98 8.8 47.8 49 -1.2 29.8
21:50 1017 30.03 846 24.98 8.8 47.8 48 -1.5 29.4
21:55 1017 30.03 846 24.98 8.8 47.8 48 -1.4 29.4
22:00 1017 30.03 846 24.98 8.9 48 49 -1.3 29.7
22:05 1017 30.03 846 24.98 8.8 47.9 49 -1.3 29.7
22:10 1017 30.03 846 24.98 8.9 48 50 -1 30.2
22:15 1017 30.03 846 24.98 8.9 48 50 -0.9 30.3
22:20 1017 30.03 846 24.98 9 48.1 50 -0.9 30.4
22:25 1017 30.03 846 24.98 9 48.1 51 -0.7 30.8
22:30 1017 30.03 846 24.98 9 48.1 50 -0.8 30.6
22:35 1017 30.03 846 24.98 9 48.2 52 -0.3 31.4
22:40 1017 30.03 847 25.01 8.9 48.1 53 -0.2 31.7
22:45 1017 30.03 847 25.01 8.9 48.1 51 -0.7 30.7
22:50 1017 30.03 847 25.01 9 48.2 49 -1.2 29.9
22:55 1017 30.03 847 25.01 9.1 48.3 48 -1.4 29.5
23:00 1017 30.03 847 25.01 9.2 48.6 46 -1.7 28.9
23:05 1017 30.03 847 25.01 9.3 48.7 46 -1.7 28.9
23:10 1017 30.03 847 25.01 9.2 48.6 46 -1.7 28.9
23:15 1017 30.03 847 25.01 9.1 48.5 47 -1.6 29.2
23:20 1018 30.06 847 25.01 9.1 48.3 48 -1.4 29.5
23:25 1018 30.06 847 25.01 9 48.1 48 -1.3 29.6
23:30 1018 30.06 847 25.01 8.8 47.8 49 -1.4 29.6
23:35 1018 30.06 847 25.01 8.6 47.5 50 -1.2 29.9
23:40 1018 30.06 847 25.01 8.4 47.1 53 -0.7 30.8
23:45 1018 30.06 847 25.01 8.1 46.6 53 -0.9 30.4
23:50 1018 30.06 847 25.01 8 46.4 53 -0.9 30.4
23:55 1018 30.06 847 25.01 7.9 46.2 53 -1.2 29.9
24:00 1018 30.06 847 25.01 7.9 46.2 53 -1.2 29.9